sensor_id;sensor_type;location;lat;lon;timestamp;P1;durP1;ratioP1;P2;durP2;ratioP2
64375;SDS011;50700;55.416;12.952;2022-11-15T00:00:26;41.53;;;17.77;;
64375;SDS011;50700;55.416;12.952;2022-11-15T00:02:53;41.22;;;18.40;;
64375;SDS011;50700;55.416;12.952;2022-11-15T00:05:19;41.65;;;18.60;;
64375;SDS011;50700;55.416;12.952;2022-11-15T00:07:45;39.75;;;18.17;;
64375;SDS011;50700;55.416;12.952;2022-11-15T00:10:11;45.50;;;19.10;;
64375;SDS011;50700;55.416;12.952;2022-11-15T00:12:38;39.85;;;18.10;;
64375;SDS011;50700;55.416;12.952;2022-11-15T00:15:04;42.10;;;18.40;;
64375;SDS011;50700;55.416;12.952;2022-11-15T00:17:30;44.53;;;18.05;;
64375;SDS011;50700;55.416;12.952;2022-11-15T00:19:57;43.40;;;18.65;;
64375;SDS011;50700;55.416;12.952;2022-11-15T00:22:23;40.35;;;17.75;;
64375;SDS011;50700;55.416;12.952;2022-11-15T00:24:49;35.75;;;16.75;;
64375;SDS011;50700;55.416;12.952;2022-11-15T00:27:15;36.55;;;16.60;;
64375;SDS011;50700;55.416;12.952;2022-11-15T00:29:41;41.92;;;17.88;;
64375;SDS011;50700;55.416;12.952;2022-11-15T00:32:11;40.88;;;17.33;;
64375;SDS011;50700;55.416;12.952;2022-11-15T00:34:37;39.78;;;17.50;;
64375;SDS011;50700;55.416;12.952;2022-11-15T00:37:03;45.03;;;19.05;;
64375;SDS011;50700;55.416;12.952;2022-11-15T00:39:29;42.90;;;17.90;;
64375;SDS011;50700;55.416;12.952;2022-11-15T00:41:55;42.13;;;17.95;;
64375;SDS011;50700;55.416;12.952;2022-11-15T00:44:21;37.60;;;17.70;;
64375;SDS011;50700;55.416;12.952;2022-11-15T00:46:47;41.70;;;16.88;;
64375;SDS011;50700;55.416;12.952;2022-11-15T00:49:14;41.78;;;18.88;;
64375;SDS011;50700;55.416;12.952;2022-11-15T00:51:40;40.80;;;18.83;;
64375;SDS011;50700;55.416;12.952;2022-11-15T00:54:06;38.88;;;18.30;;
64375;SDS011;50700;55.416;12.952;2022-11-15T00:56:32;44.22;;;17.70;;
64375;SDS011;50700;55.416;12.952;2022-11-15T00:58:58;42.90;;;18.60;;
64375;SDS011;50700;55.416;12.952;2022-11-15T01:01:24;39.42;;;18.17;;
64375;SDS011;50700;55.416;12.952;2022-11-15T01:03:50;43.97;;;19.65;;
64375;SDS011;50700;55.416;12.952;2022-11-15T01:06:17;38.45;;;17.85;;
64375;SDS011;50700;55.416;12.952;2022-11-15T01:08:43;39.45;;;18.50;;
64375;SDS011;50700;55.416;12.952;2022-11-15T01:11:10;42.00;;;18.33;;
64375;SDS011;50700;55.416;12.952;2022-11-15T01:13:37;45.60;;;18.95;;
64375;SDS011;50700;55.416;12.952;2022-11-15T01:16:07;44.63;;;19.52;;
64375;SDS011;50700;55.416;12.952;2022-11-15T01:18:33;46.17;;;18.83;;
64375;SDS011;50700;55.416;12.952;2022-11-15T01:21:03;40.03;;;18.08;;
64375;SDS011;50700;55.416;12.952;2022-11-15T01:23:30;36.35;;;17.20;;
64375;SDS011;50700;55.416;12.952;2022-11-15T01:26:02;38.67;;;19.27;;
64375;SDS011;50700;55.416;12.952;2022-11-15T01:28:33;39.90;;;17.63;;
64375;SDS011;50700;55.416;12.952;2022-11-15T01:31:00;42.85;;;18.30;;
64375;SDS011;50700;55.416;12.952;2022-11-15T01:33:27;39.50;;;19.10;;
64375;SDS011;50700;55.416;12.952;2022-11-15T01:35:53;38.33;;;18.48;;
64375;SDS011;50700;55.416;12.952;2022-11-15T01:38:19;42.83;;;20.73;;
64375;SDS011;50700;55.416;12.952;2022-11-15T01:40:45;41.20;;;19.60;;
64375;SDS011;50700;55.416;12.952;2022-11-15T01:43:22;49.08;;;20.92;;
64375;SDS011;50700;55.416;12.952;2022-11-15T01:45:50;47.95;;;19.90;;
64375;SDS011;50700;55.416;12.952;2022-11-15T01:48:17;44.65;;;19.45;;
64375;SDS011;50700;55.416;12.952;2022-11-15T01:50:43;42.42;;;19.17;;
64375;SDS011;50700;55.416;12.952;2022-11-15T01:53:10;41.67;;;18.77;;
64375;SDS011;50700;55.416;12.952;2022-11-15T01:55:36;41.97;;;19.45;;
64375;SDS011;50700;55.416;12.952;2022-11-15T01:58:03;44.25;;;19.90;;
64375;SDS011;50700;55.416;12.952;2022-11-15T02:00:30;39.25;;;19.17;;
64375;SDS011;50700;55.416;12.952;2022-11-15T02:02:57;47.83;;;20.05;;
64375;SDS011;50700;55.416;12.952;2022-11-15T02:05:23;44.42;;;19.25;;
64375;SDS011;50700;55.416;12.952;2022-11-15T02:07:49;45.92;;;20.33;;
64375;SDS011;50700;55.416;12.952;2022-11-15T02:10:20;48.60;;;19.75;;
64375;SDS011;50700;55.416;12.952;2022-11-15T02:12:46;39.72;;;19.05;;
64375;SDS011;50700;55.416;12.952;2022-11-15T02:15:13;42.88;;;18.48;;
64375;SDS011;50700;55.416;12.952;2022-11-15T02:17:44;43.72;;;19.73;;
64375;SDS011;50700;55.416;12.952;2022-11-15T02:30:38;39.75;;;17.67;;
64375;SDS011;50700;55.416;12.952;2022-11-15T02:41:09;38.97;;;18.23;;
64375;SDS011;50700;55.416;12.952;2022-11-15T02:43:38;35.10;;;17.10;;
64375;SDS011;50700;55.416;12.952;2022-11-15T02:46:26;39.22;;;18.08;;
64375;SDS011;50700;55.416;12.952;2022-11-15T02:49:13;45.40;;;19.30;;
64375;SDS011;50700;55.416;12.952;2022-11-15T02:51:40;35.88;;;17.48;;
64375;SDS011;50700;55.416;12.952;2022-11-15T02:54:15;38.42;;;17.67;;
64375;SDS011;50700;55.416;12.952;2022-11-15T02:56:43;45.50;;;19.60;;
64375;SDS011;50700;55.416;12.952;2022-11-15T03:07:01;44.05;;;18.98;;
64375;SDS011;50700;55.416;12.952;2022-11-15T03:09:42;41.33;;;18.38;;
64375;SDS011;50700;55.416;12.952;2022-11-15T03:12:19;39.22;;;17.60;;
64375;SDS011;50700;55.416;12.952;2022-11-15T03:14:50;40.67;;;18.08;;
64375;SDS011;50700;55.416;12.952;2022-11-15T03:17:43;41.90;;;18.80;;
64375;SDS011;50700;55.416;12.952;2022-11-15T03:20:11;37.90;;;17.02;;
64375;SDS011;50700;55.416;12.952;2022-11-15T03:22:41;43.40;;;20.13;;
64375;SDS011;50700;55.416;12.952;2022-11-15T03:25:09;38.90;;;17.15;;
64375;SDS011;50700;55.416;12.952;2022-11-15T03:27:38;39.78;;;17.40;;
64375;SDS011;50700;55.416;12.952;2022-11-15T03:30:06;35.85;;;16.92;;
64375;SDS011;50700;55.416;12.952;2022-11-15T03:32:38;40.38;;;17.30;;
64375;SDS011;50700;55.416;12.952;2022-11-15T03:35:10;39.80;;;17.30;;
64375;SDS011;50700;55.416;12.952;2022-11-15T03:37:41;38.78;;;17.48;;
64375;SDS011;50700;55.416;12.952;2022-11-15T03:40:09;43.55;;;18.67;;
64375;SDS011;50700;55.416;12.952;2022-11-15T03:42:38;40.28;;;17.85;;
64375;SDS011;50700;55.416;12.952;2022-11-15T03:45:12;36.38;;;17.52;;
64375;SDS011;50700;55.416;12.952;2022-11-15T03:47:45;39.72;;;17.58;;
64375;SDS011;50700;55.416;12.952;2022-11-15T03:52:40;38.30;;;16.73;;
64375;SDS011;50700;55.416;12.952;2022-11-15T03:55:07;41.33;;;17.80;;
64375;SDS011;50700;55.416;12.952;2022-11-15T03:57:35;45.78;;;17.92;;
64375;SDS011;50700;55.416;12.952;2022-11-15T04:00:01;36.03;;;18.08;;
64375;SDS011;50700;55.416;12.952;2022-11-15T04:02:27;40.17;;;17.88;;
64375;SDS011;50700;55.416;12.952;2022-11-15T04:04:54;40.65;;;18.38;;
64375;SDS011;50700;55.416;12.952;2022-11-15T04:07:20;43.03;;;18.20;;
64375;SDS011;50700;55.416;12.952;2022-11-15T04:09:47;44.78;;;19.70;;
64375;SDS011;50700;55.416;12.952;2022-11-15T04:12:32;39.33;;;18.58;;
64375;SDS011;50700;55.416;12.952;2022-11-15T04:15:00;41.90;;;18.38;;
64375;SDS011;50700;55.416;12.952;2022-11-15T04:19:58;43.97;;;17.58;;
64375;SDS011;50700;55.416;12.952;2022-11-15T04:22:43;45.35;;;20.42;;
64375;SDS011;50700;55.416;12.952;2022-11-15T04:25:28;45.30;;;18.63;;
64375;SDS011;50700;55.416;12.952;2022-11-15T04:27:54;43.60;;;19.10;;
64375;SDS011;50700;55.416;12.952;2022-11-15T04:30:20;37.88;;;18.27;;
64375;SDS011;50700;55.416;12.952;2022-11-15T04:32:46;42.38;;;18.38;;
64375;SDS011;50700;55.416;12.952;2022-11-15T04:35:12;42.72;;;19.17;;
64375;SDS011;50700;55.416;12.952;2022-11-15T04:37:38;41.45;;;18.38;;
64375;SDS011;50700;55.416;12.952;2022-11-15T04:40:05;46.00;;;19.95;;
64375;SDS011;50700;55.416;12.952;2022-11-15T04:42:31;44.70;;;20.10;;
64375;SDS011;50700;55.416;12.952;2022-11-15T04:44:57;44.30;;;20.58;;
64375;SDS011;50700;55.416;12.952;2022-11-15T04:47:23;41.70;;;19.85;;
64375;SDS011;50700;55.416;12.952;2022-11-15T04:49:50;40.10;;;19.40;;
64375;SDS011;50700;55.416;12.952;2022-11-15T04:52:16;43.47;;;20.40;;
64375;SDS011;50700;55.416;12.952;2022-11-15T04:54:42;42.90;;;19.67;;
64375;SDS011;50700;55.416;12.952;2022-11-15T04:57:08;46.90;;;20.25;;
64375;SDS011;50700;55.416;12.952;2022-11-15T04:59:34;39.70;;;18.45;;
64375;SDS011;50700;55.416;12.952;2022-11-15T05:02:00;38.55;;;17.85;;
64375;SDS011;50700;55.416;12.952;2022-11-15T05:04:26;45.90;;;19.08;;
64375;SDS011;50700;55.416;12.952;2022-11-15T05:06:52;43.60;;;20.40;;
64375;SDS011;50700;55.416;12.952;2022-11-15T05:09:19;46.80;;;21.00;;
64375;SDS011;50700;55.416;12.952;2022-11-15T05:11:46;46.08;;;21.20;;
64375;SDS011;50700;55.416;12.952;2022-11-15T05:14:12;46.03;;;20.25;;
64375;SDS011;50700;55.416;12.952;2022-11-15T05:16:38;44.47;;;20.13;;
64375;SDS011;50700;55.416;12.952;2022-11-15T05:19:05;45.97;;;20.02;;
64375;SDS011;50700;55.416;12.952;2022-11-15T05:21:32;43.00;;;19.05;;
64375;SDS011;50700;55.416;12.952;2022-11-15T05:23:58;48.55;;;20.92;;
64375;SDS011;50700;55.416;12.952;2022-11-15T05:26:24;46.33;;;20.92;;
64375;SDS011;50700;55.416;12.952;2022-11-15T05:28:55;43.53;;;19.38;;
64375;SDS011;50700;55.416;12.952;2022-11-15T05:31:21;42.45;;;20.00;;
64375;SDS011;50700;55.416;12.952;2022-11-15T05:33:48;42.22;;;18.90;;
64375;SDS011;50700;55.416;12.952;2022-11-15T05:36:21;47.30;;;20.63;;
64375;SDS011;50700;55.416;12.952;2022-11-15T05:38:48;47.55;;;21.10;;
64375;SDS011;50700;55.416;12.952;2022-11-15T05:41:15;50.33;;;22.40;;
64375;SDS011;50700;55.416;12.952;2022-11-15T05:43:42;47.75;;;21.35;;
64375;SDS011;50700;55.416;12.952;2022-11-15T05:46:09;48.17;;;21.38;;
64375;SDS011;50700;55.416;12.952;2022-11-15T05:48:36;50.33;;;22.17;;
64375;SDS011;50700;55.416;12.952;2022-11-15T05:51:03;45.58;;;22.17;;
64375;SDS011;50700;55.416;12.952;2022-11-15T05:53:30;47.80;;;21.73;;
64375;SDS011;50700;55.416;12.952;2022-11-15T05:55:57;46.63;;;20.60;;
64375;SDS011;50700;55.416;12.952;2022-11-15T05:58:23;47.97;;;21.42;;
64375;SDS011;50700;55.416;12.952;2022-11-15T06:00:49;46.78;;;21.17;;
64375;SDS011;50700;55.416;12.952;2022-11-15T06:03:15;48.80;;;21.20;;
64375;SDS011;50700;55.416;12.952;2022-11-15T06:05:41;50.20;;;23.85;;
64375;SDS011;50700;55.416;12.952;2022-11-15T06:08:08;48.53;;;22.38;;
64375;SDS011;50700;55.416;12.952;2022-11-15T06:10:34;48.95;;;22.40;;
64375;SDS011;50700;55.416;12.952;2022-11-15T06:13:00;48.95;;;21.83;;
64375;SDS011;50700;55.416;12.952;2022-11-15T06:15:27;46.45;;;20.35;;
64375;SDS011;50700;55.416;12.952;2022-11-15T06:17:56;46.38;;;21.20;;
64375;SDS011;50700;55.416;12.952;2022-11-15T06:20:24;49.78;;;21.77;;
64375;SDS011;50700;55.416;12.952;2022-11-15T06:22:50;47.63;;;21.25;;
64375;SDS011;50700;55.416;12.952;2022-11-15T06:25:16;46.72;;;21.33;;
64375;SDS011;50700;55.416;12.952;2022-11-15T06:27:42;50.13;;;23.63;;
64375;SDS011;50700;55.416;12.952;2022-11-15T06:30:08;49.85;;;23.25;;
64375;SDS011;50700;55.416;12.952;2022-11-15T06:32:34;46.38;;;22.52;;
64375;SDS011;50700;55.416;12.952;2022-11-15T06:35:01;53.20;;;21.92;;
64375;SDS011;50700;55.416;12.952;2022-11-15T06:37:27;50.83;;;21.65;;
64375;SDS011;50700;55.416;12.952;2022-11-15T06:39:53;50.95;;;22.63;;
64375;SDS011;50700;55.416;12.952;2022-11-15T06:42:19;51.72;;;22.70;;
64375;SDS011;50700;55.416;12.952;2022-11-15T06:44:45;54.55;;;22.90;;
64375;SDS011;50700;55.416;12.952;2022-11-15T06:47:11;53.53;;;24.23;;
64375;SDS011;50700;55.416;12.952;2022-11-15T06:49:38;52.55;;;23.52;;
64375;SDS011;50700;55.416;12.952;2022-11-15T06:52:04;52.40;;;22.77;;
64375;SDS011;50700;55.416;12.952;2022-11-15T06:54:30;48.38;;;21.00;;
64375;SDS011;50700;55.416;12.952;2022-11-15T06:56:56;48.25;;;21.20;;
64375;SDS011;50700;55.416;12.952;2022-11-15T06:59:22;45.42;;;19.73;;
64375;SDS011;50700;55.416;12.952;2022-11-15T07:01:48;43.05;;;20.10;;
64375;SDS011;50700;55.416;12.952;2022-11-15T07:04:15;51.45;;;22.48;;
64375;SDS011;50700;55.416;12.952;2022-11-15T07:06:41;53.50;;;20.58;;
64375;SDS011;50700;55.416;12.952;2022-11-15T07:09:07;47.25;;;21.98;;
64375;SDS011;50700;55.416;12.952;2022-11-15T07:11:33;53.38;;;22.65;;
64375;SDS011;50700;55.416;12.952;2022-11-15T07:13:59;56.08;;;22.42;;
64375;SDS011;50700;55.416;12.952;2022-11-15T07:16:26;47.83;;;21.67;;
64375;SDS011;50700;55.416;12.952;2022-11-15T07:18:52;49.28;;;21.50;;
64375;SDS011;50700;55.416;12.952;2022-11-15T07:21:18;51.10;;;22.65;;
64375;SDS011;50700;55.416;12.952;2022-11-15T07:23:44;54.13;;;23.45;;
64375;SDS011;50700;55.416;12.952;2022-11-15T07:26:11;49.17;;;22.90;;
64375;SDS011;50700;55.416;12.952;2022-11-15T07:28:37;50.10;;;21.65;;
64375;SDS011;50700;55.416;12.952;2022-11-15T07:31:03;48.67;;;21.70;;
64375;SDS011;50700;55.416;12.952;2022-11-15T07:33:30;53.97;;;21.88;;
64375;SDS011;50700;55.416;12.952;2022-11-15T07:35:59;47.47;;;20.92;;
64375;SDS011;50700;55.416;12.952;2022-11-15T07:38:27;44.08;;;21.02;;
64375;SDS011;50700;55.416;12.952;2022-11-15T07:40:57;52.03;;;21.90;;
64375;SDS011;50700;55.416;12.952;2022-11-15T07:43:23;48.75;;;22.63;;
64375;SDS011;50700;55.416;12.952;2022-11-15T07:45:49;47.60;;;21.38;;
64375;SDS011;50700;55.416;12.952;2022-11-15T07:48:16;48.25;;;22.27;;
64375;SDS011;50700;55.416;12.952;2022-11-15T07:50:42;48.95;;;21.55;;
64375;SDS011;50700;55.416;12.952;2022-11-15T07:53:09;47.83;;;21.75;;
64375;SDS011;50700;55.416;12.952;2022-11-15T07:55:36;52.17;;;21.40;;
64375;SDS011;50700;55.416;12.952;2022-11-15T07:58:07;50.22;;;21.45;;
64375;SDS011;50700;55.416;12.952;2022-11-15T08:00:33;49.80;;;20.48;;
64375;SDS011;50700;55.416;12.952;2022-11-15T08:05:29;44.15;;;20.23;;
64375;SDS011;50700;55.416;12.952;2022-11-15T08:07:55;48.25;;;20.58;;
64375;SDS011;50700;55.416;12.952;2022-11-15T08:10:21;47.85;;;21.08;;
64375;SDS011;50700;55.416;12.952;2022-11-15T08:12:47;48.50;;;21.50;;
64375;SDS011;50700;55.416;12.952;2022-11-15T08:15:14;55.85;;;23.48;;
64375;SDS011;50700;55.416;12.952;2022-11-15T08:17:40;49.85;;;21.90;;
64375;SDS011;50700;55.416;12.952;2022-11-15T08:20:06;53.22;;;21.02;;
64375;SDS011;50700;55.416;12.952;2022-11-15T08:22:33;48.40;;;20.95;;
64375;SDS011;50700;55.416;12.952;2022-11-15T08:24:59;47.78;;;21.50;;
64375;SDS011;50700;55.416;12.952;2022-11-15T08:27:25;53.60;;;21.08;;
64375;SDS011;50700;55.416;12.952;2022-11-15T08:29:51;52.13;;;21.67;;
64375;SDS011;50700;55.416;12.952;2022-11-15T08:32:18;50.75;;;21.30;;
64375;SDS011;50700;55.416;12.952;2022-11-15T08:34:44;48.75;;;21.50;;
64375;SDS011;50700;55.416;12.952;2022-11-15T08:37:10;52.78;;;23.98;;
64375;SDS011;50700;55.416;12.952;2022-11-15T08:39:36;54.72;;;22.02;;
64375;SDS011;50700;55.416;12.952;2022-11-15T08:42:03;49.67;;;22.88;;
64375;SDS011;50700;55.416;12.952;2022-11-15T08:44:29;48.95;;;22.10;;
64375;SDS011;50700;55.416;12.952;2022-11-15T08:46:55;53.13;;;22.48;;
64375;SDS011;50700;55.416;12.952;2022-11-15T08:49:21;48.50;;;21.48;;
64375;SDS011;50700;55.416;12.952;2022-11-15T08:51:47;51.10;;;22.25;;
64375;SDS011;50700;55.416;12.952;2022-11-15T08:54:13;51.30;;;22.48;;
64375;SDS011;50700;55.416;12.952;2022-11-15T08:56:40;51.72;;;22.88;;
64375;SDS011;50700;55.416;12.952;2022-11-15T08:59:06;54.47;;;22.63;;
64375;SDS011;50700;55.416;12.952;2022-11-15T09:01:32;53.50;;;23.58;;
64375;SDS011;50700;55.416;12.952;2022-11-15T09:03:58;50.47;;;22.17;;
64375;SDS011;50700;55.416;12.952;2022-11-15T09:06:24;64.93;;;23.85;;
64375;SDS011;50700;55.416;12.952;2022-11-15T09:08:50;51.28;;;21.17;;
64375;SDS011;50700;55.416;12.952;2022-11-15T09:11:17;45.85;;;20.48;;
64375;SDS011;50700;55.416;12.952;2022-11-15T09:13:45;46.58;;;20.95;;
64375;SDS011;50700;55.416;12.952;2022-11-15T09:16:11;50.15;;;21.85;;
64375;SDS011;50700;55.416;12.952;2022-11-15T09:18:38;48.67;;;21.27;;
64375;SDS011;50700;55.416;12.952;2022-11-15T09:21:04;52.58;;;20.55;;
64375;SDS011;50700;55.416;12.952;2022-11-15T09:23:30;51.78;;;22.00;;
64375;SDS011;50700;55.416;12.952;2022-11-15T09:26:00;54.13;;;22.77;;
64375;SDS011;50700;55.416;12.952;2022-11-15T09:28:27;46.38;;;20.85;;
64375;SDS011;50700;55.416;12.952;2022-11-15T09:31:03;53.28;;;22.73;;
64375;SDS011;50700;55.416;12.952;2022-11-15T09:33:30;51.17;;;21.85;;
64375;SDS011;50700;55.416;12.952;2022-11-15T09:36:03;50.33;;;21.63;;
64375;SDS011;50700;55.416;12.952;2022-11-15T09:38:30;50.28;;;20.88;;
64375;SDS011;50700;55.416;12.952;2022-11-15T09:41:08;49.13;;;21.65;;
64375;SDS011;50700;55.416;12.952;2022-11-15T09:48:56;50.47;;;19.90;;
64375;SDS011;50700;55.416;12.952;2022-11-15T09:56:22;46.15;;;19.35;;
64375;SDS011;50700;55.416;12.952;2022-11-15T10:01:21;50.42;;;21.05;;
64375;SDS011;50700;55.416;12.952;2022-11-15T10:03:52;50.13;;;21.20;;
64375;SDS011;50700;55.416;12.952;2022-11-15T10:06:22;50.85;;;21.58;;
64375;SDS011;50700;55.416;12.952;2022-11-15T10:08:51;55.33;;;22.08;;
64375;SDS011;50700;55.416;12.952;2022-11-15T10:11:23;54.58;;;23.02;;
64375;SDS011;50700;55.416;12.952;2022-11-15T10:13:51;51.08;;;19.88;;
64375;SDS011;50700;55.416;12.952;2022-11-15T10:19:35;48.13;;;20.50;;
64375;SDS011;50700;55.416;12.952;2022-11-15T10:21:44;58.40;;;20.40;;
64375;SDS011;50700;55.416;12.952;2022-11-15T10:24:12;49.00;;;20.67;;
64375;SDS011;50700;55.416;12.952;2022-11-15T10:26:39;55.03;;;22.50;;
64375;SDS011;50700;55.416;12.952;2022-11-15T10:29:11;49.60;;;20.27;;
64375;SDS011;50700;55.416;12.952;2022-11-15T10:31:43;48.33;;;20.00;;
64375;SDS011;50700;55.416;12.952;2022-11-15T10:34:13;48.72;;;20.98;;
64375;SDS011;50700;55.416;12.952;2022-11-15T10:36:47;54.33;;;20.83;;
64375;SDS011;50700;55.416;12.952;2022-11-15T10:39:20;48.50;;;20.65;;
64375;SDS011;50700;55.416;12.952;2022-11-15T10:41:46;50.28;;;19.35;;
64375;SDS011;50700;55.416;12.952;2022-11-15T10:44:18;44.33;;;18.45;;
64375;SDS011;50700;55.416;12.952;2022-11-15T10:46:46;43.03;;;17.33;;
64375;SDS011;50700;55.416;12.952;2022-11-15T10:51:45;43.38;;;19.08;;
64375;SDS011;50700;55.416;12.952;2022-11-15T10:54:11;43.30;;;18.15;;
64375;SDS011;50700;55.416;12.952;2022-11-15T10:56:38;41.20;;;17.92;;
64375;SDS011;50700;55.416;12.952;2022-11-15T10:59:09;44.70;;;18.75;;
64375;SDS011;50700;55.416;12.952;2022-11-15T11:01:47;44.38;;;19.60;;
64375;SDS011;50700;55.416;12.952;2022-11-15T11:06:53;43.67;;;18.77;;
64375;SDS011;50700;55.416;12.952;2022-11-15T11:09:22;40.50;;;18.40;;
64375;SDS011;50700;55.416;12.952;2022-11-15T11:11:50;46.33;;;20.98;;
64375;SDS011;50700;55.416;12.952;2022-11-15T11:14:23;48.00;;;20.10;;
64375;SDS011;50700;55.416;12.952;2022-11-15T11:16:59;42.88;;;18.45;;
64375;SDS011;50700;55.416;12.952;2022-11-15T11:22:26;54.13;;;20.55;;
64375;SDS011;50700;55.416;12.952;2022-11-15T11:40:20;38.10;;;16.48;;
64375;SDS011;50700;55.416;12.952;2022-11-15T11:48:04;51.33;;;20.07;;
64375;SDS011;50700;55.416;12.952;2022-11-15T11:50:37;45.45;;;19.25;;
64375;SDS011;50700;55.416;12.952;2022-11-15T11:53:25;49.13;;;19.98;;
64375;SDS011;50700;55.416;12.952;2022-11-15T11:55:52;38.55;;;17.27;;
64375;SDS011;50700;55.416;12.952;2022-11-15T11:58:20;46.15;;;19.77;;
64375;SDS011;50700;55.416;12.952;2022-11-15T12:01:31;46.42;;;20.25;;
64375;SDS011;50700;55.416;12.952;2022-11-15T12:06:15;42.60;;;18.08;;
64375;SDS011;50700;55.416;12.952;2022-11-15T12:08:51;46.30;;;19.50;;
64375;SDS011;50700;55.416;12.952;2022-11-15T12:13:44;40.20;;;18.30;;
64375;SDS011;50700;55.416;12.952;2022-11-15T12:18:40;39.97;;;18.33;;
64375;SDS011;50700;55.416;12.952;2022-11-15T12:23:44;46.30;;;19.07;;
64375;SDS011;50700;55.416;12.952;2022-11-15T12:26:34;46.42;;;19.88;;
64375;SDS011;50700;55.416;12.952;2022-11-15T12:28:59;52.17;;;21.08;;
64375;SDS011;50700;55.416;12.952;2022-11-15T12:33:56;49.13;;;21.20;;
64375;SDS011;50700;55.416;12.952;2022-11-15T12:39:03;49.15;;;21.52;;
64375;SDS011;50700;55.416;12.952;2022-11-15T12:41:30;51.00;;;20.67;;
64375;SDS011;50700;55.416;12.952;2022-11-15T12:43:57;53.08;;;20.60;;
64375;SDS011;50700;55.416;12.952;2022-11-15T13:02:17;52.33;;;20.92;;
64375;SDS011;50700;55.416;12.952;2022-11-15T13:04:44;44.10;;;19.77;;
64375;SDS011;50700;55.416;12.952;2022-11-15T13:07:10;44.47;;;19.33;;
64375;SDS011;50700;55.416;12.952;2022-11-15T13:09:56;48.50;;;19.92;;
64375;SDS011;50700;55.416;12.952;2022-11-15T13:14:54;46.00;;;20.13;;
64375;SDS011;50700;55.416;12.952;2022-11-15T13:17:23;47.85;;;19.70;;
64375;SDS011;50700;55.416;12.952;2022-11-15T13:22:20;49.05;;;21.27;;
64375;SDS011;50700;55.416;12.952;2022-11-15T13:25:14;54.05;;;21.90;;
64375;SDS011;50700;55.416;12.952;2022-11-15T13:27:41;52.67;;;20.92;;
64375;SDS011;50700;55.416;12.952;2022-11-15T13:30:20;48.13;;;20.08;;
64375;SDS011;50700;55.416;12.952;2022-11-15T13:32:47;52.10;;;22.23;;
64375;SDS011;50700;55.416;12.952;2022-11-15T13:35:21;56.33;;;22.00;;
64375;SDS011;50700;55.416;12.952;2022-11-15T13:37:48;46.97;;;20.17;;
64375;SDS011;50700;55.416;12.952;2022-11-15T13:42:47;46.30;;;20.33;;
64375;SDS011;50700;55.416;12.952;2022-11-15T13:45:13;48.70;;;21.15;;
64375;SDS011;50700;55.416;12.952;2022-11-15T13:47:41;49.38;;;19.75;;
64375;SDS011;50700;55.416;12.952;2022-11-15T13:50:10;44.63;;;16.80;;
64375;SDS011;50700;55.416;12.952;2022-11-15T13:52:36;46.15;;;17.20;;
64375;SDS011;50700;55.416;12.952;2022-11-15T14:06:02;45.65;;;17.63;;
64375;SDS011;50700;55.416;12.952;2022-11-15T14:08:28;36.85;;;15.25;;
64375;SDS011;50700;55.416;12.952;2022-11-15T14:13:39;41.53;;;15.77;;
64375;SDS011;50700;55.416;12.952;2022-11-15T14:16:13;44.40;;;16.75;;
64375;SDS011;50700;55.416;12.952;2022-11-15T14:18:48;38.35;;;13.80;;
64375;SDS011;50700;55.416;12.952;2022-11-15T14:21:16;37.55;;;15.32;;
64375;SDS011;50700;55.416;12.952;2022-11-15T14:23:42;50.78;;;15.65;;
64375;SDS011;50700;55.416;12.952;2022-11-15T14:26:28;41.08;;;16.38;;
64375;SDS011;50700;55.416;12.952;2022-11-15T14:28:54;36.20;;;14.27;;
64375;SDS011;50700;55.416;12.952;2022-11-15T14:31:21;40.78;;;14.95;;
64375;SDS011;50700;55.416;12.952;2022-11-15T14:33:47;34.00;;;14.07;;
64375;SDS011;50700;55.416;12.952;2022-11-15T14:38:42;37.50;;;15.25;;
64375;SDS011;50700;55.416;12.952;2022-11-15T14:41:27;36.75;;;15.82;;
64375;SDS011;50700;55.416;12.952;2022-11-15T14:43:57;34.70;;;14.02;;
64375;SDS011;50700;55.416;12.952;2022-11-15T14:46:23;39.28;;;15.27;;
64375;SDS011;50700;55.416;12.952;2022-11-15T14:48:50;37.55;;;14.60;;
64375;SDS011;50700;55.416;12.952;2022-11-15T14:51:17;30.08;;;13.68;;
64375;SDS011;50700;55.416;12.952;2022-11-15T14:53:44;32.22;;;12.80;;
64375;SDS011;50700;55.416;12.952;2022-11-15T14:56:11;33.58;;;13.35;;
64375;SDS011;50700;55.416;12.952;2022-11-15T14:58:37;31.02;;;13.13;;
64375;SDS011;50700;55.416;12.952;2022-11-15T15:01:17;29.02;;;13.02;;
64375;SDS011;50700;55.416;12.952;2022-11-15T15:03:45;35.63;;;12.48;;
64375;SDS011;50700;55.416;12.952;2022-11-15T15:06:11;28.27;;;11.35;;
64375;SDS011;50700;55.416;12.952;2022-11-15T15:08:39;30.40;;;11.77;;
64375;SDS011;50700;55.416;12.952;2022-11-15T15:11:16;29.40;;;11.10;;
64375;SDS011;50700;55.416;12.952;2022-11-15T15:13:43;26.55;;;11.40;;
64375;SDS011;50700;55.416;12.952;2022-11-15T15:16:09;28.92;;;11.38;;
64375;SDS011;50700;55.416;12.952;2022-11-15T15:18:35;29.73;;;12.07;;
64375;SDS011;50700;55.416;12.952;2022-11-15T15:21:01;24.00;;;10.30;;
64375;SDS011;50700;55.416;12.952;2022-11-15T15:23:32;26.67;;;10.00;;
64375;SDS011;50700;55.416;12.952;2022-11-15T15:26:00;27.58;;;10.75;;
64375;SDS011;50700;55.416;12.952;2022-11-15T15:28:26;23.63;;;10.82;;
64375;SDS011;50700;55.416;12.952;2022-11-15T15:30:53;26.58;;;11.98;;
64375;SDS011;50700;55.416;12.952;2022-11-15T15:33:19;24.70;;;10.73;;
64375;SDS011;50700;55.416;12.952;2022-11-15T15:35:45;33.03;;;11.75;;
64375;SDS011;50700;55.416;12.952;2022-11-15T15:38:11;29.67;;;11.40;;
64375;SDS011;50700;55.416;12.952;2022-11-15T15:40:37;30.00;;;11.13;;
64375;SDS011;50700;55.416;12.952;2022-11-15T15:43:03;28.58;;;11.10;;
64375;SDS011;50700;55.416;12.952;2022-11-15T15:45:30;32.47;;;12.40;;
64375;SDS011;50700;55.416;12.952;2022-11-15T15:47:56;27.70;;;10.98;;
64375;SDS011;50700;55.416;12.952;2022-11-15T15:50:23;32.45;;;11.32;;
64375;SDS011;50700;55.416;12.952;2022-11-15T15:52:54;24.70;;;10.57;;
64375;SDS011;50700;55.416;12.952;2022-11-15T15:55:21;24.67;;;11.13;;
64375;SDS011;50700;55.416;12.952;2022-11-15T15:57:48;24.83;;;10.55;;
64375;SDS011;50700;55.416;12.952;2022-11-15T16:00:14;23.83;;;10.30;;
64375;SDS011;50700;55.416;12.952;2022-11-15T16:02:41;24.48;;;9.95;;
64375;SDS011;50700;55.416;12.952;2022-11-15T16:05:08;23.13;;;9.82;;
64375;SDS011;50700;55.416;12.952;2022-11-15T16:07:34;19.85;;;8.77;;
64375;SDS011;50700;55.416;12.952;2022-11-15T16:10:00;20.05;;;8.88;;
64375;SDS011;50700;55.416;12.952;2022-11-15T16:12:30;18.20;;;9.07;;
64375;SDS011;50700;55.416;12.952;2022-11-15T16:14:57;24.30;;;9.10;;
64375;SDS011;50700;55.416;12.952;2022-11-15T16:17:27;18.45;;;8.10;;
64375;SDS011;50700;55.416;12.952;2022-11-15T16:19:54;19.90;;;8.00;;
64375;SDS011;50700;55.416;12.952;2022-11-15T16:22:20;16.02;;;7.30;;
64375;SDS011;50700;55.416;12.952;2022-11-15T16:24:46;15.93;;;6.88;;
64375;SDS011;50700;55.416;12.952;2022-11-15T16:27:19;17.42;;;7.30;;